createdAt,value
2019-06-07T00:01:08.449Z,95.60
2019-06-07T00:03:35.187Z,95.30
2019-06-07T00:06:01.326Z,95.60
2019-06-07T00:08:29.234Z,95.50
2019-06-07T00:10:55.630Z,95.90
2019-06-07T00:13:22.146Z,95.80
2019-06-07T00:15:48.567Z,95.70
2019-06-07T00:18:20.036Z,95.90
2019-06-07T00:20:43.137Z,96.00
2019-06-07T00:23:11.378Z,96.00
2019-06-07T00:25:37.354Z,95.70
2019-06-07T00:28:03.622Z,95.70
2019-06-07T00:30:41.286Z,96.20
2019-06-07T00:32:58.223Z,96.80
2019-06-07T00:35:24.391Z,96.50
2019-06-07T00:37:50.995Z,96.40
2019-06-07T00:40:25.396Z,96.40
2019-06-07T00:42:45.628Z,97.20
2019-06-07T00:45:17.866Z,97.10
2019-06-07T00:47:40.809Z,97.30
2019-06-07T00:50:07.550Z,97.30
2019-06-07T00:55:04.513Z,96.70
2019-06-07T00:57:30.999Z,96.80
2019-06-07T00:59:57.233Z,96.80
2019-06-07T01:02:28.221Z,97.80
2019-06-07T01:04:51.680Z,98.30
2019-06-07T01:07:18.742Z,98.00
2019-06-07T01:09:45.898Z,97.60
2019-06-07T01:12:14.122Z,97.90
2019-06-07T01:14:40.285Z,97.50
2019-06-07T01:17:26.149Z,97.60
2019-06-07T01:19:41.630Z,97.60
2019-06-07T01:22:07.788Z,97.90
2019-06-07T01:24:33.970Z,98.00
2019-06-07T01:27:00.467Z,98.50
2019-06-07T01:29:29.446Z,98.60
2019-06-07T01:31:55.002Z,98.60
2019-06-07T01:34:23.439Z,98.50
2019-06-07T01:36:49.440Z,99.10
2019-06-07T01:39:16.378Z,98.50
2019-06-07T01:41:42.573Z,98.60
2019-06-07T01:44:08.815Z,99.00
2019-06-07T01:46:34.950Z,99.40
2019-06-07T01:49:01.561Z,98.80
2019-06-07T01:51:30.467Z,98.50
2019-06-07T01:54:41.281Z,98.50
2019-06-07T01:56:26.562Z,99.40
2019-06-07T01:58:52.347Z,99.70
2019-06-07T02:01:19.659Z,98.80
2019-06-07T02:03:46.840Z,99.50
2019-06-07T02:06:13.269Z,99.90
2019-06-07T02:08:39.415Z,99.90
2019-06-07T02:11:05.555Z,99.10
2019-06-07T02:13:31.703Z,99.50
2019-06-07T02:15:57.936Z,99.80
2019-06-07T02:18:28.091Z,99.90
2019-06-07T02:20:52.276Z,99.90
2019-06-07T02:23:20.331Z,99.90
2019-06-07T02:25:50.453Z,99.90
2019-06-07T02:28:32.779Z,99.90
2019-06-07T02:30:55.801Z,99.90
2019-06-07T02:33:11.372Z,99.90
2019-06-07T02:35:40.649Z,99.90
2019-06-07T02:38:05.587Z,99.90
2019-06-07T02:40:37.124Z,99.90
2019-06-07T02:43:00.820Z,99.60
2019-06-07T02:45:32.893Z,99.60
2019-06-07T02:47:56.107Z,99.80
2019-06-07T02:50:23.157Z,99.40
2019-06-07T02:52:49.388Z,99.10
2019-06-07T02:55:15.657Z,99.10
2019-06-07T02:57:43.080Z,98.80
2019-06-07T03:00:40.760Z,99.10
2019-06-07T03:02:41.718Z,99.40
2019-06-07T03:05:08.394Z,99.40
2019-06-07T03:07:39.090Z,99.90
2019-06-07T03:10:07.239Z,99.90
2019-06-07T03:12:35.565Z,99.60
2019-06-07T03:15:02.020Z,99.90
2019-06-07T03:17:38.209Z,99.70
2019-06-07T03:20:06.847Z,99.90
2019-06-07T03:22:38.932Z,99.90
2019-06-07T03:25:02.793Z,99.90
2019-06-07T03:27:36.265Z,99.90
2019-06-07T03:29:57.601Z,99.60
2019-06-07T03:32:23.740Z,99.90
2019-06-07T03:34:50.168Z,99.60
2019-06-07T03:37:16.353Z,99.60
2019-06-07T03:39:42.744Z,99.60
2019-06-07T03:42:08.896Z,99.70
2019-06-07T03:44:38.204Z,99.60
2019-06-07T03:47:03.633Z,99.70
2019-06-07T03:49:31.514Z,99.90
2019-06-07T03:51:58.101Z,99.90
2019-06-07T03:54:24.250Z,99.90
2019-06-07T03:56:50.658Z,99.90
2019-06-07T03:59:16.820Z,99.90
2019-06-07T04:01:42.971Z,99.90
2019-06-07T04:04:09.237Z,99.80
2019-06-07T04:06:36.855Z,99.90
2019-06-07T04:09:05.399Z,99.60
2019-06-07T04:11:32.534Z,99.70
2019-06-07T04:13:58.865Z,99.80
2019-06-07T04:16:25.067Z,99.90
2019-06-07T04:18:51.459Z,99.90
2019-06-07T04:21:17.604Z,99.70
2019-06-07T04:23:45.648Z,99.90
2019-06-07T04:26:11.921Z,99.90
2019-06-07T04:29:31.168Z,99.80
2019-06-07T04:31:06.258Z,99.90
2019-06-07T04:33:37.038Z,99.90
2019-06-07T04:36:01.817Z,99.70
2019-06-07T04:38:29.514Z,99.50
2019-06-07T04:40:57.815Z,99.30
2019-06-07T04:43:25.877Z,99.40
2019-06-07T04:45:54.285Z,99.40
2019-06-07T04:48:20.740Z,99.40
2019-06-07T04:50:48.183Z,99.20
2019-06-07T04:53:14.409Z,99.10
2019-06-07T04:55:41.815Z,99.00
2019-06-07T04:58:08.252Z,98.80
2019-06-07T05:00:51.885Z,98.60
2019-06-07T05:03:04.296Z,98.40
2019-06-07T05:05:31.877Z,98.10
2019-06-07T05:08:06.913Z,98.10
2019-06-07T05:10:26.564Z,97.80
2019-06-07T05:12:53.168Z,97.80
2019-06-07T05:15:19.520Z,97.60
2019-06-07T05:17:45.922Z,97.40
2019-06-07T05:20:12.381Z,97.10
2019-06-07T05:22:41.978Z,96.90
2019-06-07T05:25:07.162Z,96.60
2019-06-07T05:27:35.507Z,96.30
2019-06-07T05:30:36.075Z,95.20
2019-06-07T05:32:32.907Z,94.30
2019-06-07T05:34:58.166Z,93.50
2019-06-07T05:37:24.460Z,93.00
2019-06-07T05:39:50.757Z,93.00
2019-06-07T05:42:16.895Z,92.50
2019-06-07T05:44:45.233Z,92.40
2019-06-07T05:47:11.114Z,92.50
2019-06-07T05:49:39.591Z,91.80
2019-06-07T05:52:05.349Z,91.40
2019-06-07T05:54:34.686Z,90.60
2019-06-07T05:56:59.543Z,90.50
2019-06-07T05:59:26.067Z,90.00
2019-06-07T06:02:00.140Z,89.30
2019-06-07T06:04:20.355Z,87.70
2019-06-07T06:06:47.416Z,86.50
2019-06-07T06:09:14.360Z,85.80
2019-06-07T06:11:54.178Z,84.20
2019-06-07T06:14:08.748Z,82.40
2019-06-07T06:16:37.048Z,82.60
2019-06-07T06:19:03.371Z,81.60
2019-06-07T06:21:29.519Z,81.70
2019-06-07T06:23:55.951Z,82.20
2019-06-07T06:26:22.112Z,80.70
2019-06-07T06:28:49.735Z,79.70
2019-06-07T06:31:16.401Z,79.70
2019-06-07T06:33:43.412Z,80.00
2019-06-07T06:36:10.700Z,77.60
2019-06-07T06:38:38.571Z,77.90
2019-06-07T06:41:16.027Z,78.20
2019-06-07T06:43:34.295Z,77.50
2019-06-07T06:46:00.519Z,77.20
2019-06-07T06:48:27.051Z,79.00
2019-06-07T06:50:53.557Z,77.70
2019-06-07T06:53:19.769Z,76.70
2019-06-07T06:55:48.458Z,77.30
2019-06-07T06:58:15.346Z,76.70
2019-06-07T07:00:53.487Z,78.90
2019-06-07T07:03:54.103Z,78.20
2019-06-07T07:05:44.004Z,75.70
2019-06-07T07:08:11.758Z,74.30
2019-06-07T07:10:43.241Z,75.10
2019-06-07T07:13:09.699Z,74.60
2019-06-07T07:15:35.922Z,74.90
2019-06-07T07:18:08.437Z,73.80
2019-06-07T07:20:31.604Z,73.40
2019-06-07T07:22:57.871Z,72.90
2019-06-07T07:25:24.022Z,73.90
2019-06-07T07:27:53.834Z,73.00
2019-06-07T07:30:41.943Z,72.80
2019-06-07T07:33:08.707Z,73.00
2019-06-07T07:35:35.253Z,72.40
2019-06-07T07:38:01.435Z,72.50
2019-06-07T07:40:57.048Z,72.30
2019-06-07T07:42:56.771Z,70.90
2019-06-07T07:45:23.371Z,70.40
2019-06-07T07:48:08.343Z,71.10
2019-06-07T07:50:17.926Z,69.70
2019-06-07T07:52:45.930Z,70.90
2019-06-07T07:55:12.902Z,69.00
2019-06-07T07:57:39.113Z,69.30
2019-06-07T08:00:48.710Z,69.00
2019-06-07T08:02:34.162Z,69.00
2019-06-07T08:05:21.412Z,69.10
2019-06-07T08:07:30.477Z,66.50
2019-06-07T08:10:00.092Z,66.80
2019-06-07T08:12:25.028Z,64.10
2019-06-07T08:14:53.709Z,66.10
2019-06-07T08:17:19.358Z,66.40
2019-06-07T08:19:47.657Z,65.70
2019-06-07T08:22:14.255Z,64.70
2019-06-07T08:24:40.556Z,65.80
2019-06-07T08:27:25.425Z,63.00
2019-06-07T08:29:44.966Z,64.10
2019-06-07T08:32:02.980Z,64.00
2019-06-07T08:34:29.129Z,65.50
2019-06-07T08:36:59.154Z,64.20
2019-06-07T08:39:23.812Z,64.40
2019-06-07T08:41:59.405Z,62.50
2019-06-07T08:44:23.831Z,63.10
2019-06-07T08:46:46.464Z,63.00
2019-06-07T08:49:12.861Z,61.40
2019-06-07T08:51:39.008Z,63.50
2019-06-07T08:54:21.539Z,64.50
2019-06-07T08:56:33.360Z,63.90
2019-06-07T08:59:06.226Z,63.30
2019-06-07T09:01:27.990Z,63.00
2019-06-07T09:03:59.554Z,63.20
2019-06-07T09:08:50.584Z,64.60
2019-06-07T09:11:16.999Z,64.30
2019-06-07T09:13:43.302Z,63.60
2019-06-07T09:16:09.518Z,61.80
2019-06-07T09:18:42.771Z,62.00
2019-06-07T09:21:09.057Z,62.10
2019-06-07T09:23:32.490Z,61.30
2019-06-07T09:26:06.477Z,62.50
2019-06-07T09:28:27.158Z,62.00
2019-06-07T09:30:53.549Z,61.30
2019-06-07T09:33:19.875Z,61.30
2019-06-07T09:35:46.243Z,61.90
2019-06-07T09:38:24.306Z,62.70
2019-06-07T09:40:40.509Z,61.50
2019-06-07T09:43:55.507Z,61.90
2019-06-07T09:45:35.562Z,61.70
2019-06-07T09:48:05.683Z,62.10
2019-06-07T09:53:02.730Z,60.70
2019-06-07T09:55:25.471Z,60.40
2019-06-07T09:57:51.779Z,61.00
2019-06-07T10:00:40.891Z,59.70
2019-06-07T10:02:46.257Z,60.60
2019-06-07T10:05:14.351Z,60.90
2019-06-07T10:07:59.164Z,61.50
2019-06-07T10:12:37.572Z,61.30
2019-06-07T10:15:05.372Z,61.00
2019-06-07T10:17:31.681Z,61.40
2019-06-07T10:20:00.509Z,61.70
2019-06-07T10:22:26.013Z,63.40
2019-06-07T10:24:52.240Z,62.60
2019-06-07T10:27:18.383Z,62.60
2019-06-07T10:29:44.578Z,62.30
2019-06-07T10:32:11.338Z,62.60
2019-06-07T10:34:37.791Z,61.80
2019-06-07T10:37:07.630Z,61.20
2019-06-07T10:39:47.595Z,61.70
2019-06-07T10:42:00.950Z,62.70
2019-06-07T10:44:27.181Z,61.00
2019-06-07T10:46:53.335Z,62.30
2019-06-07T10:49:19.724Z,61.90
2019-06-07T10:51:45.897Z,63.40
2019-06-07T10:54:24.836Z,61.30
2019-06-07T10:56:40.229Z,60.80
2019-06-07T10:59:07.001Z,61.00
2019-06-07T11:01:33.515Z,62.70
2019-06-07T11:03:59.709Z,62.60
2019-06-07T11:06:26.105Z,63.00
2019-06-07T11:08:52.316Z,62.30
2019-06-07T11:11:18.571Z,62.00
2019-06-07T11:13:44.790Z,63.50
2019-06-07T11:16:11.355Z,63.40
2019-06-07T11:18:37.525Z,63.60
2019-06-07T11:21:03.739Z,63.80
2019-06-07T11:23:29.893Z,64.30
2019-06-07T11:25:56.068Z,63.80
2019-06-07T11:28:22.211Z,64.30
2019-06-07T11:30:48.382Z,63.90
2019-06-07T11:33:16.303Z,63.60
2019-06-07T11:35:42.692Z,63.40
2019-06-07T11:38:10.488Z,63.00
2019-06-07T11:40:37.124Z,62.80
2019-06-07T11:43:03.455Z,63.40
2019-06-07T11:45:30.625Z,62.40
2019-06-07T11:47:59.782Z,62.80
2019-06-07T11:50:24.859Z,62.80
2019-06-07T11:52:51.087Z,60.90
2019-06-07T11:55:17.380Z,58.80
2019-06-07T11:57:43.721Z,59.10
2019-06-07T12:00:13.927Z,59.60
2019-06-07T12:02:40.398Z,58.90
2019-06-07T12:05:07.437Z,59.30
2019-06-07T12:07:33.743Z,59.60
2019-06-07T12:09:59.969Z,58.50
2019-06-07T12:12:26.148Z,59.60
2019-06-07T12:14:52.278Z,59.20
2019-06-07T12:17:19.622Z,58.90
2019-06-07T12:19:45.972Z,58.70
2019-06-07T12:22:12.163Z,58.50
2019-06-07T12:24:38.587Z,58.40
2019-06-07T12:27:04.783Z,58.00
2019-06-07T12:29:33.843Z,57.20
2019-06-07T12:31:59.171Z,57.10
2019-06-07T12:34:25.381Z,57.20
2019-06-07T12:36:51.640Z,57.30
2019-06-07T12:39:18.070Z,57.50
2019-06-07T12:41:44.367Z,55.10
2019-06-07T12:44:10.785Z,55.10
2019-06-07T12:46:37.004Z,53.00
2019-06-07T12:49:03.256Z,53.70
2019-06-07T12:51:29.412Z,53.00
2019-06-07T12:53:55.572Z,53.60
2019-06-07T12:56:22.033Z,52.50
2019-06-07T12:58:48.231Z,53.00
2019-06-07T13:01:14.444Z,52.40
2019-06-07T13:03:40.627Z,52.60
2019-06-07T13:06:07.057Z,52.00
2019-06-07T13:08:33.273Z,51.90
2019-06-07T13:11:13.979Z,51.40
2019-06-07T13:13:28.109Z,51.20
2019-06-07T13:15:54.396Z,52.10
2019-06-07T13:18:21.556Z,52.10
2019-06-07T13:20:48.815Z,52.80
2019-06-07T13:23:19.225Z,52.20
2019-06-07T13:25:46.775Z,52.40
2019-06-07T13:28:13.054Z,53.20
2019-06-07T13:30:39.213Z,53.50
2019-06-07T13:33:05.836Z,54.30
2019-06-07T13:35:33.031Z,53.90
2019-06-07T13:37:59.844Z,53.50
2019-06-07T13:40:26.360Z,53.80
2019-06-07T13:42:54.282Z,53.30
2019-06-07T13:45:22.281Z,54.00
2019-06-07T13:47:49.984Z,54.10
2019-06-07T13:50:17.553Z,53.70
2019-06-07T13:52:45.210Z,54.40
2019-06-07T13:55:12.837Z,54.70
2019-06-07T13:57:39.276Z,54.80
2019-06-07T14:00:10.711Z,55.10
2019-06-07T14:02:37.558Z,55.70
2019-06-07T14:05:06.004Z,55.20
2019-06-07T14:07:33.079Z,56.10
2019-06-07T14:09:59.308Z,56.00
2019-06-07T14:12:26.226Z,56.30
2019-06-07T14:14:53.310Z,56.30
2019-06-07T14:17:21.151Z,55.90
2019-06-07T14:19:48.809Z,56.30
2019-06-07T14:22:15.074Z,55.70
2019-06-07T14:24:41.218Z,55.90
2019-06-07T14:27:08.126Z,55.40
2019-06-07T14:29:38.414Z,56.50
2019-06-07T14:32:07.789Z,56.10
2019-06-07T14:34:34.050Z,55.70
2019-06-07T14:37:00.311Z,56.00
2019-06-07T14:39:27.115Z,56.10
2019-06-07T14:42:08.542Z,56.80
2019-06-07T14:44:26.092Z,56.60
2019-06-07T14:46:53.117Z,56.60
2019-06-07T14:49:19.282Z,56.80
2019-06-07T14:51:45.685Z,56.60
2019-06-07T14:54:11.829Z,56.30
2019-06-07T14:56:39.196Z,56.30
2019-06-07T14:59:05.384Z,56.90
2019-06-07T15:01:31.536Z,57.40
2019-06-07T15:03:58.958Z,57.60
2019-06-07T15:06:26.697Z,58.20
2019-06-07T15:08:54.327Z,58.60
2019-06-07T15:11:20.535Z,58.40
2019-06-07T15:13:46.711Z,58.00
2019-06-07T15:16:13.889Z,58.60
2019-06-07T15:18:40.078Z,58.30
2019-06-07T15:21:07.737Z,58.60
2019-06-07T15:23:35.301Z,59.30
2019-06-07T15:26:01.747Z,63.50
2019-06-07T15:28:28.015Z,81.30
2019-06-07T15:30:54.161Z,90.10
2019-06-07T15:33:20.692Z,92.60
2019-06-07T15:35:47.125Z,93.60
2019-06-07T15:38:13.299Z,93.60
2019-06-07T15:40:40.123Z,94.30
2019-06-07T15:43:06.306Z,95.20
2019-06-07T15:45:33.667Z,93.90
2019-06-07T15:47:59.912Z,94.10
2019-06-07T15:50:28.770Z,94.60
2019-06-07T15:52:54.259Z,95.60
2019-06-07T15:55:20.515Z,95.50
2019-06-07T15:57:46.670Z,95.50
2019-06-07T16:00:14.750Z,97.20
2019-06-07T16:02:41.822Z,98.80
2019-06-07T16:05:10.154Z,99.30
2019-06-07T16:07:36.394Z,99.00
2019-06-07T16:10:09.508Z,99.80
2019-06-07T16:12:36.737Z,99.90
2019-06-07T16:15:06.287Z,99.70
2019-06-07T16:17:33.009Z,99.90
2019-06-07T16:19:59.257Z,99.70
2019-06-07T16:22:25.407Z,98.90
2019-06-07T16:24:51.661Z,98.20
2019-06-07T16:27:18.174Z,99.30
2019-06-07T16:29:44.852Z,96.90
2019-06-07T16:32:11.032Z,95.60
2019-06-07T16:34:38.304Z,95.70
2019-06-07T16:37:05.600Z,95.00
2019-06-07T16:39:31.968Z,94.70
2019-06-07T16:41:58.161Z,95.10
2019-06-07T16:44:25.415Z,96.30
2019-06-07T16:46:51.679Z,94.30
2019-06-07T16:49:19.059Z,94.10
2019-06-07T16:51:46.323Z,93.30
2019-06-07T16:54:12.711Z,93.60
2019-06-07T16:56:44.437Z,92.40
2019-06-07T16:59:09.735Z,91.50
2019-06-07T17:01:36.929Z,92.50
2019-06-07T17:04:05.762Z,92.60
2019-06-07T17:06:32.146Z,92.30
2019-06-07T17:08:58.521Z,92.30
2019-06-07T17:11:25.122Z,91.20
2019-06-07T17:13:52.853Z,91.20
2019-06-07T17:16:19.311Z,91.40
2019-06-07T17:18:45.498Z,90.40
2019-06-07T17:21:11.651Z,90.90
2019-06-07T17:23:39.060Z,90.20
2019-06-07T17:26:05.657Z,88.70
2019-06-07T17:28:31.807Z,88.10
2019-06-07T17:30:58.005Z,88.70
2019-06-07T17:33:24.649Z,88.80
2019-06-07T17:35:50.838Z,87.70
2019-06-07T17:38:16.992Z,88.10
2019-06-07T17:40:43.388Z,87.80
2019-06-07T17:43:09.981Z,88.60
2019-06-07T17:45:36.287Z,88.20
2019-06-07T17:48:02.705Z,88.70
2019-06-07T17:50:29.103Z,88.50
2019-06-07T17:52:55.551Z,89.50
2019-06-07T17:55:21.735Z,89.00
2019-06-07T17:57:48.628Z,89.80
2019-06-07T18:00:33.299Z,91.10
2019-06-07T18:02:44.735Z,91.60
2019-06-07T18:05:13.640Z,92.30
2019-06-07T18:07:43.466Z,92.80
2019-06-07T18:10:14.404Z,92.10
2019-06-07T18:12:41.464Z,92.20
2019-06-07T18:15:11.744Z,91.90
2019-06-07T18:17:38.332Z,92.40
2019-06-07T18:20:05.835Z,94.20
2019-06-07T18:22:32.001Z,93.50
2019-06-07T18:24:58.931Z,93.40
2019-06-07T18:27:26.867Z,93.40
2019-06-07T18:29:53.139Z,94.40
2019-06-07T18:32:19.303Z,94.40
2019-06-07T18:34:46.699Z,94.10
2019-06-07T18:37:12.920Z,93.60
2019-06-07T18:39:41.506Z,93.20
2019-06-07T18:42:07.774Z,93.00
2019-06-07T18:44:33.997Z,92.70
2019-06-07T18:47:00.181Z,93.10
2019-06-07T18:49:27.470Z,93.00
2019-06-07T18:52:11.933Z,93.30
2019-06-07T18:54:38.397Z,93.00
2019-06-07T18:57:04.636Z,92.70
2019-06-07T18:59:30.867Z,93.00
2019-06-07T19:01:57.644Z,93.00
2019-06-07T19:04:25.740Z,93.50
2019-06-07T19:06:52.574Z,92.90
2019-06-07T19:09:18.731Z,93.20
2019-06-07T19:11:44.996Z,92.70
2019-06-07T19:14:12.297Z,92.50
2019-06-07T19:16:38.467Z,92.30
2019-06-07T19:19:04.884Z,92.20
2019-06-07T19:21:32.460Z,92.10
2019-06-07T19:24:00.062Z,92.20
2019-06-07T19:26:26.887Z,91.80
2019-06-07T19:28:53.099Z,91.30
2019-06-07T19:31:19.260Z,91.50
2019-06-07T19:33:49.001Z,91.80
2019-06-07T19:36:13.794Z,91.40
2019-06-07T19:38:42.087Z,91.30
2019-06-07T19:41:19.396Z,91.20
2019-06-07T19:43:37.823Z,91.30
2019-06-07T19:46:03.965Z,91.10
2019-06-07T19:48:31.382Z,91.10
2019-06-07T19:50:58.957Z,91.00
2019-06-07T19:53:27.192Z,90.60
2019-06-07T19:55:53.344Z,90.60
2019-06-07T19:58:19.549Z,90.40
2019-06-07T20:00:45.692Z,90.40
2019-06-07T20:03:12.188Z,90.00
2019-06-07T20:05:38.348Z,90.20
2019-06-07T20:08:05.017Z,90.30
2019-06-07T20:10:31.390Z,90.30
2019-06-07T20:12:58.687Z,90.00
2019-06-07T20:15:29.582Z,90.00
2019-06-07T20:17:57.652Z,90.30
2019-06-07T20:20:24.030Z,90.10
2019-06-07T20:22:51.258Z,89.80
2019-06-07T20:25:17.583Z,90.00
2019-06-07T20:27:43.764Z,90.10
2019-06-07T20:30:12.929Z,90.00
2019-06-07T20:32:39.234Z,90.00
2019-06-07T20:35:08.063Z,90.10
2019-06-07T20:37:34.444Z,90.00
2019-06-07T20:40:12.873Z,90.30
2019-06-07T20:42:29.006Z,90.30
2019-06-07T20:44:57.808Z,90.30
2019-06-07T20:47:23.952Z,90.20
2019-06-07T20:49:50.104Z,90.30
2019-06-07T20:52:16.317Z,90.10
2019-06-07T20:54:43.260Z,90.30
2019-06-07T20:57:11.355Z,90.30
2019-06-07T20:59:37.511Z,90.10
2019-06-07T21:02:05.059Z,90.40
2019-06-07T21:04:31.405Z,90.40
2019-06-07T21:06:59.121Z,90.20
2019-06-07T21:09:27.019Z,90.50
2019-06-07T21:11:53.407Z,90.50
2019-06-07T21:14:19.781Z,90.40
2019-06-07T21:16:46.066Z,90.50
2019-06-07T21:19:12.941Z,90.50
2019-06-07T21:21:39.104Z,90.60
2019-06-07T21:24:06.682Z,90.70
2019-06-07T21:26:34.005Z,90.80
2019-06-07T21:29:01.224Z,90.90
2019-06-07T21:31:28.148Z,90.90
2019-06-07T21:33:54.432Z,90.90
2019-06-07T21:36:21.692Z,91.10
2019-06-07T21:38:47.923Z,90.90
2019-06-07T21:41:14.102Z,91.00
2019-06-07T21:43:42.079Z,91.20
2019-06-07T21:46:15.001Z,91.20
2019-06-07T21:48:38.419Z,91.30
2019-06-07T21:51:04.613Z,91.30
2019-06-07T21:53:30.848Z,91.00
2019-06-07T21:55:57.743Z,91.00
2019-06-07T21:58:23.910Z,91.10
2019-06-07T22:00:59.263Z,90.90
2019-06-07T22:03:28.417Z,90.80
2019-06-07T22:05:56.674Z,90.80
2019-06-07T22:08:23.539Z,90.80
2019-06-07T22:10:49.879Z,90.90
2019-06-07T22:13:16.063Z,90.90
2019-06-07T22:15:43.214Z,91.10
2019-06-07T22:18:10.758Z,91.00
2019-06-07T22:20:36.988Z,91.20
2019-06-07T22:23:04.446Z,90.90
2019-06-07T22:25:30.698Z,90.90
2019-06-07T22:27:56.842Z,91.00
2019-06-07T22:30:23.276Z,90.90
2019-06-07T22:32:49.428Z,91.00
2019-06-07T22:35:15.609Z,91.10
2019-06-07T22:37:42.015Z,91.00
2019-06-07T22:40:08.741Z,91.10
2019-06-07T22:42:35.595Z,90.80
2019-06-07T22:45:03.359Z,91.10
2019-06-07T22:47:29.804Z,91.20
2019-06-07T22:49:55.962Z,91.20
2019-06-07T22:52:22.142Z,91.10
2019-06-07T22:54:48.343Z,91.00
2019-06-07T22:57:19.273Z,90.40
2019-06-07T22:59:45.697Z,89.90
2019-06-07T23:02:12.629Z,89.30
2019-06-07T23:04:38.983Z,89.00
2019-06-07T23:07:05.541Z,88.80
2019-06-07T23:09:31.721Z,90.00
2019-06-07T23:11:57.857Z,89.40
2019-06-07T23:14:25.732Z,88.90
2019-06-07T23:16:55.785Z,88.90
2019-06-07T23:19:20.526Z,89.30
2019-06-07T23:21:46.991Z,89.80
2019-06-07T23:24:14.166Z,90.00
2019-06-07T23:26:40.655Z,90.00
2019-06-07T23:29:06.840Z,90.00
2019-06-07T23:31:33.269Z,90.00
2019-06-07T23:33:59.456Z,90.00
2019-06-07T23:36:25.588Z,90.00
2019-06-07T23:38:51.856Z,90.00
2019-06-07T23:41:18.004Z,90.30
2019-06-07T23:43:44.244Z,90.20
2019-06-07T23:46:11.413Z,90.10
2019-06-07T23:48:37.941Z,90.30
2019-06-07T23:51:04.101Z,90.10
2019-06-07T23:53:30.235Z,90.30
2019-06-07T23:55:56.395Z,90.20
2019-06-07T23:58:22.760Z,89.60
